Ely, Nevada
Current Conditions -  °F | °C
As of 2:53 AM on Sunday 23 Nov 2014 (Local Time) from KELY Reporting Station
Clear Clear  
Wind Chill: 18°   Ceiling: Unl
Heat Index: 29°   Visibility: 10mi
Dew Point: 27°   Wind: 14mph
Humidity: 92%   Direction: 320°NW
Pressure: 30.16"   Gusts: NA
Location:  39.25°N, 114.87°W
Report Text: KELY 231053Z AUTO 32012KT 10SM CLR M02/M03 A3016 RMK AO2 SLP204 T10171028 $
Loading
Personal Weather Stations






























Interactive Weather Map New forecast layout! Learn more

10-Day Weather Forecast

Advertisements
Track Severe Weather on mobile